createdAt,value
2022-12-05T00:00:15.755Z,27.50
2022-12-05T00:02:46.207Z,27.60
2022-12-05T00:05:16.577Z,27.70
2022-12-05T00:07:46.813Z,27.70
2022-12-05T00:10:17.134Z,27.80
2022-12-05T00:12:47.405Z,27.90
2022-12-05T00:15:17.715Z,27.90
2022-12-05T00:17:47.896Z,28.10
2022-12-05T00:20:18.245Z,28.10
2022-12-05T00:22:48.862Z,28.30
2022-12-05T00:25:19.527Z,28.30
2022-12-05T00:27:51.165Z,28.30
2022-12-05T00:30:21.593Z,28.30
2022-12-05T00:32:51.919Z,28.40
2022-12-05T00:35:22.150Z,28.50
2022-12-05T00:37:52.377Z,28.60
2022-12-05T00:40:22.647Z,28.60
2022-12-05T00:42:52.865Z,28.60
2022-12-05T00:45:23.961Z,28.60
2022-12-05T00:47:54.258Z,28.60
2022-12-05T00:50:24.478Z,28.60
2022-12-05T00:52:55.059Z,28.70
2022-12-05T00:55:25.853Z,28.80
2022-12-05T00:57:56.566Z,28.90
2022-12-05T01:00:27.179Z,28.90
2022-12-05T01:02:58.707Z,28.90
2022-12-05T01:05:29.285Z,28.90
2022-12-05T01:08:00.115Z,28.70
2022-12-05T01:10:31.121Z,28.50
2022-12-05T01:13:02.051Z,28.30
2022-12-05T01:15:40.636Z,28.20
2022-12-05T01:18:11.753Z,28.00
2022-12-05T01:20:46.545Z,27.80
2022-12-05T01:23:16.994Z,27.70
2022-12-05T01:25:51.157Z,27.70
2022-12-05T01:28:22.761Z,27.80
2022-12-05T01:30:53.564Z,27.90
2022-12-05T01:33:23.820Z,28.00
2022-12-05T01:35:54.692Z,28.00
2022-12-05T01:38:34.371Z,27.90
2022-12-05T01:41:09.992Z,27.70
2022-12-05T01:44:01.737Z,27.60
2022-12-05T01:46:38.448Z,27.40
2022-12-05T01:49:13.174Z,27.20
2022-12-05T01:51:57.877Z,27.00
2022-12-05T01:54:30.034Z,26.90
2022-12-05T01:57:06.344Z,26.70
2022-12-05T01:59:42.011Z,26.60
2022-12-05T02:02:13.112Z,26.50
2022-12-05T02:05:07.897Z,26.40
2022-12-05T02:07:42.119Z,26.20
2022-12-05T02:10:13.212Z,26.10
2022-12-05T02:12:45.422Z,26.10
2022-12-05T02:15:34.484Z,26.00
2022-12-05T02:18:31.740Z,25.90
2022-12-05T02:21:29.149Z,25.90
2022-12-05T02:24:52.056Z,25.80
2022-12-05T02:27:47.867Z,25.80
2022-12-05T02:30:24.270Z,25.80
2022-12-05T02:33:09.363Z,25.80
2022-12-05T02:35:53.033Z,25.80
2022-12-05T02:38:43.289Z,25.90
2022-12-05T02:41:37.633Z,26.00
2022-12-05T02:45:04.255Z,26.00
2022-12-05T02:47:38.682Z,25.90
2022-12-05T02:50:11.997Z,25.80
2022-12-05T02:52:43.445Z,25.50
2022-12-05T02:55:15.336Z,25.30
2022-12-05T02:57:51.887Z,25.20
2022-12-05T03:00:24.045Z,24.90
2022-12-05T03:02:59.934Z,24.80
2022-12-05T03:05:52.302Z,24.60
2022-12-05T03:08:38.808Z,24.20
2022-12-05T03:11:10.052Z,23.80
2022-12-05T03:14:03.555Z,23.50
2022-12-05T03:16:51.322Z,23.20
2022-12-05T03:19:50.270Z,23.10
2022-12-05T03:22:44.584Z,23.10
2022-12-05T03:25:16.039Z,23.20
2022-12-05T03:27:54.612Z,23.50
2022-12-05T03:30:26.291Z,23.90
2022-12-05T03:32:57.643Z,24.30
2022-12-05T03:35:58.207Z,24.70
2022-12-05T03:38:44.354Z,25.00
2022-12-05T03:41:36.158Z,25.10
2022-12-05T03:44:36.341Z,25.20
2022-12-05T03:47:16.363Z,25.20
2022-12-05T03:49:53.465Z,25.20
2022-12-05T03:55:11.392Z,25.30
2022-12-05T03:57:59.363Z,25.50
2022-12-05T04:00:34.556Z,25.70
2022-12-05T04:03:23.104Z,25.70
2022-12-05T04:06:01.692Z,25.90
2022-12-05T04:09:06.676Z,26.10
2022-12-05T04:11:41.950Z,26.30
2022-12-05T04:14:19.259Z,26.40
2022-12-05T04:17:12.659Z,26.50
2022-12-05T04:20:11.471Z,26.50
2022-12-05T04:22:47.888Z,26.60
2022-12-05T04:25:36.953Z,26.70
2022-12-05T04:28:36.453Z,26.80
2022-12-05T04:31:15.573Z,27.00
2022-12-05T04:33:56.592Z,27.00
2022-12-05T04:36:47.369Z,27.10
2022-12-05T04:39:21.134Z,27.20
2022-12-05T04:41:59.899Z,27.20
2022-12-05T04:44:40.478Z,27.20
2022-12-05T04:47:13.191Z,27.30
2022-12-05T04:49:48.016Z,27.20
2022-12-05T04:52:23.905Z,27.20
2022-12-05T04:55:19.801Z,27.20
2022-12-05T04:58:07.760Z,27.00
2022-12-05T05:00:58.643Z,26.90
2022-12-05T05:03:47.058Z,26.90
2022-12-05T05:06:18.228Z,26.90
2022-12-05T05:08:58.100Z,26.80
2022-12-05T05:11:31.479Z,26.70
2022-12-05T05:14:02.270Z,26.60
2022-12-05T05:16:36.262Z,26.50
2022-12-05T05:19:08.033Z,26.40
2022-12-05T05:21:42.737Z,26.30
2022-12-05T05:24:14.681Z,26.30
2022-12-05T05:26:51.204Z,26.30
2022-12-05T05:29:26.582Z,26.30
2022-12-05T05:31:56.869Z,26.30
2022-12-05T05:34:30.599Z,26.10
2022-12-05T05:37:00.882Z,26.00
2022-12-05T05:39:44.716Z,25.90
2022-12-05T05:42:14.940Z,25.70
2022-12-05T05:44:50.950Z,25.50
2022-12-05T05:47:21.603Z,25.40
2022-12-05T05:49:52.293Z,25.20
2022-12-05T05:52:23.870Z,25.20
2022-12-05T05:54:56.696Z,25.10
2022-12-05T05:57:27.319Z,25.00
2022-12-05T05:59:59.409Z,24.90
2022-12-05T06:02:35.480Z,24.80
2022-12-05T06:05:06.421Z,24.70
2022-12-05T06:07:36.661Z,24.60
2022-12-05T06:10:20.682Z,24.50
2022-12-05T06:12:53.361Z,24.50
2022-12-05T06:15:37.276Z,24.50
2022-12-05T06:18:08.912Z,24.50
2022-12-05T06:20:43.920Z,24.40
2022-12-05T06:23:15.121Z,24.40
2022-12-05T06:25:51.615Z,24.30
2022-12-05T06:28:23.863Z,24.20
2022-12-05T06:30:54.854Z,24.10
2022-12-05T06:33:25.239Z,24.10
2022-12-05T06:36:14.026Z,24.10
2022-12-05T06:38:46.315Z,24.10
2022-12-05T06:41:23.519Z,24.10
2022-12-05T06:44:02.288Z,24.10
2022-12-05T06:46:35.203Z,24.00
2022-12-05T06:49:05.468Z,24.00
2022-12-05T06:51:40.163Z,23.90
2022-12-05T06:54:10.870Z,23.90
2022-12-05T06:56:43.003Z,23.80
2022-12-05T06:59:15.268Z,23.80
2022-12-05T07:01:48.022Z,23.70
2022-12-05T07:04:27.935Z,23.60
2022-12-05T07:06:59.147Z,23.50
2022-12-05T07:09:47.874Z,23.30
2022-12-05T07:12:21.267Z,23.20
2022-12-05T07:14:51.623Z,23.10
2022-12-05T07:17:24.061Z,22.90
2022-12-05T07:19:56.003Z,22.80
2022-12-05T07:22:26.748Z,22.70
2022-12-05T07:24:56.972Z,22.70
2022-12-05T07:27:28.477Z,22.60
2022-12-05T07:29:59.539Z,22.50
2022-12-05T07:32:33.585Z,22.40
2022-12-05T07:35:05.373Z,22.40
2022-12-05T07:37:36.056Z,22.30
2022-12-05T07:40:07.010Z,22.30
2022-12-05T07:42:37.390Z,22.20
2022-12-05T07:45:08.136Z,22.10
2022-12-05T07:47:38.431Z,22.00
2022-12-05T07:50:14.158Z,22.10
2022-12-05T07:52:46.091Z,22.00
2022-12-05T07:55:16.850Z,22.00
2022-12-05T07:57:48.701Z,22.00
2022-12-05T08:00:20.112Z,21.90
2022-12-05T08:02:51.330Z,21.80
2022-12-05T08:05:22.016Z,21.80
2022-12-05T08:07:55.127Z,21.80
2022-12-05T08:10:25.465Z,21.80
2022-12-05T08:12:58.558Z,21.70
2022-12-05T08:15:30.671Z,21.80
2022-12-05T08:18:03.277Z,21.80
2022-12-05T08:20:35.648Z,21.80
2022-12-05T08:23:07.048Z,21.80
2022-12-05T08:25:39.116Z,21.70
2022-12-05T08:28:10.920Z,21.70
2022-12-05T08:30:43.439Z,21.70
2022-12-05T08:33:14.536Z,21.70
2022-12-05T08:35:44.878Z,21.60
2022-12-05T08:38:16.784Z,21.50
2022-12-05T08:40:49.464Z,21.50
2022-12-05T08:43:24.309Z,21.40
2022-12-05T08:45:57.007Z,21.40
2022-12-05T08:48:29.879Z,21.40
2022-12-05T08:51:02.317Z,21.40
2022-12-05T08:53:33.734Z,21.40
2022-12-05T08:56:06.877Z,21.40
2022-12-05T08:58:39.477Z,21.30
2022-12-05T09:01:17.586Z,21.40
2022-12-05T09:03:51.865Z,21.30
2022-12-05T09:06:28.326Z,21.30
2022-12-05T09:09:01.024Z,21.30
2022-12-05T09:11:36.181Z,21.30
2022-12-05T09:14:07.273Z,21.20
2022-12-05T09:16:42.218Z,21.20
2022-12-05T09:19:27.857Z,21.20
2022-12-05T09:21:59.305Z,21.10
2022-12-05T09:24:30.073Z,21.00
2022-12-05T09:27:01.529Z,21.00
2022-12-05T09:29:33.825Z,21.00
2022-12-05T09:32:04.573Z,20.90
2022-12-05T09:34:34.971Z,20.80
2022-12-05T09:37:30.899Z,20.80
2022-12-05T09:39:58.578Z,20.80
2022-12-05T09:42:43.433Z,20.80
2022-12-05T09:45:28.367Z,20.70
2022-12-05T09:48:19.706Z,20.70
2022-12-05T09:51:01.316Z,20.60
2022-12-05T09:53:34.016Z,20.60
2022-12-05T09:56:12.925Z,20.50
2022-12-05T09:58:55.169Z,20.40
2022-12-05T10:01:48.136Z,20.40
2022-12-05T10:04:53.375Z,20.30
2022-12-05T10:07:49.571Z,20.20
2022-12-05T10:10:32.271Z,20.10
2022-12-05T10:13:19.542Z,20.10
2022-12-05T10:15:58.861Z,20.00
2022-12-05T10:18:57.174Z,20.00
2022-12-05T10:21:44.748Z,19.90
2022-12-05T10:24:40.202Z,19.80
2022-12-05T10:27:16.155Z,19.80
2022-12-05T10:30:09.810Z,19.70
2022-12-05T10:32:48.219Z,19.60
2022-12-05T10:35:27.994Z,19.60
2022-12-05T10:38:10.548Z,19.50
2022-12-05T10:40:54.638Z,19.40
2022-12-05T10:43:36.555Z,19.40
2022-12-05T10:46:10.654Z,19.30
2022-12-05T10:48:45.669Z,19.20
2022-12-05T10:51:26.464Z,19.10
2022-12-05T10:53:59.971Z,19.00
2022-12-05T10:56:43.698Z,18.90
2022-12-05T10:59:18.444Z,18.80
2022-12-05T11:01:54.265Z,18.70
2022-12-05T11:04:27.679Z,18.70
2022-12-05T11:07:05.077Z,18.60
2022-12-05T11:09:41.514Z,18.50
2022-12-05T11:12:48.613Z,18.40
2022-12-05T11:15:28.853Z,18.30
2022-12-05T11:18:21.082Z,18.20
2022-12-05T11:20:52.718Z,18.20
2022-12-05T11:23:32.167Z,18.10
2022-12-05T11:26:03.329Z,18.00
2022-12-05T11:28:37.571Z,17.90
2022-12-05T11:31:19.659Z,17.80
2022-12-05T11:34:13.749Z,17.80
2022-12-05T11:36:49.603Z,17.70
2022-12-05T11:39:20.484Z,17.60
2022-12-05T11:42:10.761Z,17.60
2022-12-05T11:45:08.272Z,17.60
2022-12-05T11:48:11.485Z,17.50
2022-12-05T11:50:51.219Z,17.50
2022-12-05T11:54:15.395Z,17.50
2022-12-05T11:56:56.889Z,17.50
2022-12-05T11:59:33.442Z,17.50
2022-12-05T12:02:09.795Z,17.50
2022-12-05T12:04:54.136Z,17.50
2022-12-05T12:07:52.345Z,17.50
2022-12-05T12:10:25.870Z,17.50
2022-12-05T12:13:16.027Z,17.50
2022-12-05T12:16:18.257Z,17.40
2022-12-05T12:18:54.836Z,17.30
2022-12-05T12:21:40.927Z,17.20
2022-12-05T12:24:35.610Z,17.10
2022-12-05T12:27:16.590Z,17.10
2022-12-05T12:29:49.686Z,17.00
2022-12-05T12:32:47.310Z,16.90
2022-12-05T12:35:21.092Z,16.90
2022-12-05T12:38:22.378Z,16.80
2022-12-05T12:41:15.552Z,16.80
2022-12-05T12:44:27.418Z,16.80
2022-12-05T12:47:26.236Z,16.70
2022-12-05T12:50:16.593Z,16.70
2022-12-05T12:53:21.193Z,16.70
2022-12-05T12:56:12.455Z,16.60
2022-12-05T12:58:55.184Z,16.60
2022-12-05T13:01:44.289Z,16.50
2022-12-05T13:04:25.614Z,16.50
2022-12-05T13:07:28.620Z,16.50
2022-12-05T13:10:21.000Z,16.50
2022-12-05T13:12:52.246Z,16.40
2022-12-05T13:15:53.193Z,16.40
2022-12-05T13:18:28.547Z,16.30
2022-12-05T13:21:04.893Z,16.30
2022-12-05T13:23:42.882Z,16.30
2022-12-05T13:26:15.380Z,16.40
2022-12-05T13:28:59.253Z,16.40
2022-12-05T13:31:48.310Z,16.50
2022-12-05T13:34:37.012Z,16.50
2022-12-05T13:37:38.518Z,16.40
2022-12-05T13:40:39.723Z,16.40
2022-12-05T13:43:12.159Z,16.40
2022-12-05T13:45:46.081Z,16.40
2022-12-05T13:48:28.631Z,16.40
2022-12-05T13:51:11.356Z,16.40
2022-12-05T13:53:49.762Z,16.40
2022-12-05T13:56:23.186Z,16.30
2022-12-05T13:58:56.408Z,16.30
2022-12-05T14:01:31.592Z,16.30
2022-12-05T14:04:06.123Z,16.30
2022-12-05T14:06:43.598Z,16.20
2022-12-05T14:09:25.260Z,16.20
2022-12-05T14:12:26.171Z,16.20
2022-12-05T14:15:00.034Z,16.20
2022-12-05T14:17:47.200Z,16.20
2022-12-05T14:20:29.957Z,16.20
2022-12-05T14:23:41.361Z,16.20
2022-12-05T14:26:11.953Z,16.20
2022-12-05T14:29:00.971Z,16.20
2022-12-05T14:31:53.576Z,16.20
2022-12-05T14:34:29.089Z,16.10
2022-12-05T14:37:18.797Z,16.10
2022-12-05T14:40:01.765Z,16.10
2022-12-05T14:42:53.055Z,16.00
2022-12-05T14:45:31.696Z,15.90
2022-12-05T14:48:29.085Z,15.90
2022-12-05T14:51:01.603Z,15.90
2022-12-05T14:53:37.170Z,15.90
2022-12-05T14:56:14.105Z,15.90
2022-12-05T14:59:15.429Z,15.80
2022-12-05T15:02:02.676Z,15.80
2022-12-05T15:04:47.184Z,15.80
2022-12-05T15:07:35.493Z,15.70
2022-12-05T15:10:12.929Z,15.70
2022-12-05T15:12:54.161Z,15.60
2022-12-05T15:15:37.252Z,15.50
2022-12-05T15:18:42.054Z,15.50
2022-12-05T15:21:12.723Z,15.50
2022-12-05T15:23:46.109Z,15.50
2022-12-05T15:26:49.873Z,15.40
2022-12-05T15:29:35.117Z,15.40
2022-12-05T15:32:24.747Z,15.40
2022-12-05T15:35:09.401Z,15.30
2022-12-05T15:37:59.216Z,15.30
2022-12-05T15:40:38.873Z,15.30
2022-12-05T15:43:30.368Z,15.20
2022-12-05T15:46:29.804Z,15.20
2022-12-05T15:49:02.905Z,15.10
2022-12-05T15:51:40.107Z,15.10
2022-12-05T15:54:17.199Z,15.00
2022-12-05T15:56:46.950Z,15.00
2022-12-05T15:59:27.460Z,14.90
2022-12-05T16:02:25.255Z,14.90
2022-12-05T16:05:01.201Z,14.90
2022-12-05T16:07:34.500Z,14.80
2022-12-05T16:10:05.294Z,14.80
2022-12-05T16:12:43.343Z,14.70
2022-12-05T16:15:24.396Z,14.80
2022-12-05T16:18:04.312Z,14.80
2022-12-05T16:20:37.297Z,14.70
2022-12-05T16:23:25.747Z,14.70
2022-12-05T16:25:57.021Z,14.70
2022-12-05T16:28:27.767Z,14.70
2022-12-05T16:31:04.393Z,14.70
2022-12-05T16:33:37.730Z,14.70
2022-12-05T16:36:13.925Z,14.70
2022-12-05T16:38:46.653Z,14.80
2022-12-05T16:41:18.810Z,14.90
2022-12-05T16:43:49.706Z,14.90
2022-12-05T16:46:22.117Z,15.00
2022-12-05T16:49:15.435Z,15.10
2022-12-05T16:51:48.616Z,15.10
2022-12-05T16:54:23.480Z,15.20
2022-12-05T16:56:54.390Z,15.20
2022-12-05T16:59:38.722Z,15.20
2022-12-05T17:02:15.429Z,15.20
2022-12-05T17:04:46.283Z,15.30
2022-12-05T17:07:17.157Z,15.20
2022-12-05T17:09:48.511Z,15.20
2022-12-05T17:12:27.432Z,15.20
2022-12-05T17:14:58.368Z,15.20
2022-12-05T17:17:28.885Z,15.20
2022-12-05T17:19:59.153Z,15.20
2022-12-05T17:22:30.372Z,15.10
2022-12-05T17:25:02.928Z,15.10
2022-12-05T17:27:34.037Z,15.00
2022-12-05T17:30:04.516Z,15.00
2022-12-05T17:32:34.746Z,15.00
2022-12-05T17:35:06.989Z,14.90
2022-12-05T17:37:37.388Z,14.90
2022-12-05T17:40:09.036Z,14.80
2022-12-05T17:42:41.300Z,14.80
2022-12-05T17:45:18.586Z,14.70
2022-12-05T17:47:49.803Z,14.70
2022-12-05T17:50:23.682Z,14.60
2022-12-05T17:52:57.791Z,14.60
2022-12-05T17:55:31.468Z,14.50
2022-12-05T17:58:01.708Z,14.50
2022-12-05T18:00:32.517Z,14.50
2022-12-05T18:03:02.962Z,14.50
2022-12-05T18:05:33.635Z,14.40
2022-12-05T18:08:08.450Z,14.40
2022-12-05T18:10:38.831Z,14.40
2022-12-05T18:13:09.069Z,14.40
2022-12-05T18:18:31.646Z,14.40
2022-12-05T18:21:10.364Z,14.50
2022-12-05T18:23:42.413Z,14.50
2022-12-05T18:26:16.003Z,14.50
2022-12-05T18:28:48.938Z,14.50
2022-12-05T18:31:20.559Z,14.50
2022-12-05T18:33:51.072Z,14.40
2022-12-05T18:36:23.416Z,14.40
2022-12-05T18:38:56.346Z,14.40
2022-12-05T18:41:30.621Z,14.40
2022-12-05T18:44:01.587Z,14.40
2022-12-05T18:46:32.749Z,14.40
2022-12-05T18:49:03.617Z,14.40
2022-12-05T18:51:34.239Z,14.40
2022-12-05T18:54:06.193Z,14.40
2022-12-05T18:56:39.623Z,14.40
2022-12-05T18:59:16.710Z,14.40
2022-12-05T19:01:48.295Z,14.40
2022-12-05T19:04:22.423Z,14.40
2022-12-05T19:07:01.169Z,14.40
2022-12-05T19:09:34.040Z,14.30
2022-12-05T19:12:04.297Z,14.40
2022-12-05T19:14:35.363Z,14.30
2022-12-05T19:17:06.027Z,14.30
2022-12-05T19:19:36.693Z,14.30
2022-12-05T19:22:07.310Z,14.30
2022-12-05T19:24:39.973Z,14.40
2022-12-05T19:27:11.880Z,14.40
2022-12-05T19:29:42.492Z,14.40
2022-12-05T19:32:12.794Z,14.40
2022-12-05T19:34:43.298Z,14.50
2022-12-05T19:37:13.541Z,14.50
2022-12-05T19:39:45.645Z,14.50
2022-12-05T19:42:15.912Z,14.50
2022-12-05T19:44:47.896Z,14.50
2022-12-05T19:47:18.237Z,14.50
2022-12-05T19:49:48.745Z,14.50
2022-12-05T19:52:20.077Z,14.50
2022-12-05T19:54:50.421Z,14.50
2022-12-05T19:57:20.747Z,14.50
2022-12-05T19:59:52.327Z,14.50
2022-12-05T20:02:23.142Z,14.60
2022-12-05T20:04:53.917Z,14.60
2022-12-05T20:07:24.901Z,14.60
2022-12-05T20:09:57.306Z,14.70
2022-12-05T20:12:29.339Z,14.70
2022-12-05T20:15:00.507Z,14.80
2022-12-05T20:17:31.476Z,14.80
2022-12-05T20:20:01.695Z,14.90
2022-12-05T20:22:32.666Z,15.00
2022-12-05T20:25:02.957Z,15.00
2022-12-05T20:27:35.809Z,15.10
2022-12-05T20:30:06.178Z,15.20
2022-12-05T20:32:37.837Z,15.30
2022-12-05T20:35:09.429Z,15.40
2022-12-05T20:37:39.844Z,15.50
2022-12-05T20:40:10.913Z,15.60
2022-12-05T20:42:46.407Z,15.60
2022-12-05T20:45:17.218Z,15.70
2022-12-05T20:47:47.867Z,15.80
2022-12-05T20:50:18.239Z,15.90
2022-12-05T20:52:48.485Z,16.10
2022-12-05T20:55:18.789Z,16.20
2022-12-05T20:57:49.014Z,16.30
2022-12-05T21:00:19.498Z,16.40
2022-12-05T21:02:49.997Z,16.40
2022-12-05T21:05:23.154Z,16.30
2022-12-05T21:07:54.167Z,16.30
2022-12-05T21:10:24.410Z,16.30
2022-12-05T21:12:54.716Z,16.30
2022-12-05T21:15:24.897Z,16.20
2022-12-05T21:17:55.321Z,16.30
2022-12-05T21:20:26.059Z,16.30
2022-12-05T21:22:57.302Z,16.60
2022-12-05T21:25:28.205Z,16.90
2022-12-05T21:27:58.862Z,17.20
2022-12-05T21:30:29.168Z,17.40
2022-12-05T21:33:00.201Z,17.60
2022-12-05T21:35:31.246Z,17.90
2022-12-05T21:38:02.973Z,18.20
2022-12-05T21:40:33.205Z,18.50
2022-12-05T21:43:03.495Z,18.70
2022-12-05T21:45:35.676Z,18.60
2022-12-05T21:48:09.966Z,18.60
2022-12-05T21:50:44.787Z,18.80
2022-12-05T21:53:16.006Z,19.00
2022-12-05T21:55:46.526Z,19.30
2022-12-05T21:58:16.878Z,19.60
2022-12-05T22:00:47.165Z,19.90
2022-12-05T22:03:17.444Z,20.10
2022-12-05T22:05:47.766Z,20.20
2022-12-05T22:08:19.664Z,20.40
2022-12-05T22:10:50.047Z,20.50
2022-12-05T22:13:20.790Z,20.40
2022-12-05T22:15:51.121Z,20.50
2022-12-05T22:18:21.486Z,20.60
2022-12-05T22:21:01.906Z,20.80
2022-12-05T22:23:34.510Z,20.80
2022-12-05T22:26:34.399Z,21.00
2022-12-05T22:29:05.641Z,21.20
2022-12-05T22:31:36.176Z,21.20
2022-12-05T22:34:06.564Z,21.30
2022-12-05T22:36:37.205Z,21.40
2022-12-05T22:39:07.479Z,21.60
2022-12-05T22:41:38.001Z,21.60
2022-12-05T22:44:08.362Z,21.60
2022-12-05T22:46:39.534Z,21.70
2022-12-05T22:49:10.412Z,21.70
2022-12-05T22:51:42.293Z,21.70
2022-12-05T22:54:12.942Z,21.60
2022-12-05T22:56:43.698Z,21.60
2022-12-05T22:59:17.965Z,21.60
2022-12-05T23:01:48.407Z,21.70
2022-12-05T23:04:19.193Z,21.70
2022-12-05T23:06:49.638Z,21.80
2022-12-05T23:09:20.479Z,22.00
2022-12-05T23:11:53.835Z,22.10
2022-12-05T23:14:27.797Z,22.30
2022-12-05T23:17:00.121Z,22.30
2022-12-05T23:19:30.458Z,22.40
2022-12-05T23:22:00.926Z,22.60
2022-12-05T23:24:31.230Z,22.50
2022-12-05T23:27:01.970Z,22.20
2022-12-05T23:29:32.729Z,22.00
2022-12-05T23:32:03.332Z,21.60
2022-12-05T23:34:38.657Z,21.30
2022-12-05T23:37:09.306Z,21.10
2022-12-05T23:39:40.583Z,20.90
2022-12-05T23:42:15.327Z,20.70
2022-12-05T23:44:46.140Z,20.50
2022-12-05T23:47:17.145Z,20.40
2022-12-05T23:49:48.284Z,20.20
2022-12-05T23:52:18.700Z,20.20
2022-12-05T23:54:50.333Z,20.50
2022-12-05T23:57:20.743Z,20.90
2022-12-05T23:59:51.344Z,21.30
